Time;durP1;ratioP1;P1;durP2;ratioP2;P2;SDS_P1;SDS_P2;PMS_P1;PMS_P2;Temp;Humidity;BMP_temperature;BMP_pressure;BME280_temperature;BME280_humidity;BME280_pressure;Samples;Min_cycle;Max_cycle;Signal;HPM_P1;HPM_P2
2022/09/10 00:00:27;;;;;;;2.47;2.20;;;20.10;51.40;;;;;;6105795;23;20580;-84
2022/09/10 00:02:53;;;;;;;2.55;2.35;;;20.10;51.40;;;;;;6156754;23;20139;-83
2022/09/10 00:05:20;;;;;;;3.30;2.70;;;20.00;51.30;;;;;;6156532;23;20140;-83
2022/09/10 00:07:46;;;;;;;3.22;2.60;;;20.10;51.40;;;;;;6131000;23;20178;-84
2022/09/10 00:10:13;;;;;;;2.70;2.50;;;20.00;51.40;;;;;;6156351;23;20135;-83
2022/09/10 00:12:41;;;;;;;2.70;2.50;;;20.00;51.40;;;;;;6130545;23;20154;-83
2022/09/10 00:15:08;;;;;;;2.53;2.33;;;20.00;51.30;;;;;;6156341;23;20193;-84
2022/09/10 00:17:35;;;;;;;2.88;2.42;;;20.00;51.40;;;;;;6130219;23;20135;-84
2022/09/10 00:20:02;;;;;;;2.83;2.50;;;20.00;51.40;;;;;;6156591;23;20619;-83
2022/09/10 00:22:28;;;;;;;2.40;2.20;;;20.00;51.40;;;;;;6130170;23;20242;-83
2022/09/10 00:24:56;;;;;;;2.40;2.20;;;20.00;51.40;;;;;;6130162;23;20163;-83
2022/09/10 00:27:23;;;;;;;2.72;2.30;;;20.00;51.40;;;;;;6130356;23;20567;-83
2022/09/10 00:29:53;;;;;;;2.70;2.50;;;20.00;51.40;;;;;;6106289;23;20155;-83
2022/09/10 00:32:20;;;;;;;2.60;2.40;;;20.00;51.40;;;;;;6130482;23;20143;-84
2022/09/10 00:34:46;;;;;;;2.38;2.17;;;20.00;51.40;;;;;;6105462;23;20261;-83
2022/09/10 00:37:13;;;;;;;2.95;2.55;;;20.00;51.40;;;;;;6105624;23;20139;-82
2022/09/10 00:39:40;;;;;;;2.50;2.30;;;20.00;51.40;;;;;;6130152;23;20162;-84
2022/09/10 00:42:10;;;;;;;2.50;2.30;;;20.00;51.40;;;;;;6154492;23;20627;-84
2022/09/10 00:44:57;;;;;;;2.60;2.40;;;20.00;51.40;;;;;;6106716;23;20147;-85
2022/09/10 00:47:27;;;;;;;2.70;2.33;;;20.00;51.50;;;;;;6085788;23;20148;-83
2022/09/10 00:50:10;;;;;;;2.65;2.40;;;20.00;51.50;;;;;;6155976;23;20445;-84
2022/09/10 00:52:36;;;;;;;2.63;2.40;;;20.00;51.40;;;;;;6130410;23;20579;-83
2022/09/10 00:55:02;;;;;;;2.58;2.38;;;20.00;51.40;;;;;;6105523;23;20152;-82
2022/09/10 00:57:28;;;;;;;2.90;2.40;;;20.00;51.50;;;;;;6129905;23;20160;-85
2022/09/10 01:00:00;;;;;;;2.10;1.90;;;20.00;51.50;;;;;;6156347;23;20175;-83
2022/09/10 01:02:26;;;;;;;2.75;2.47;;;20.00;51.50;;;;;;6154086;23;20263;-85
2022/09/10 01:04:53;;;;;;;2.42;2.22;;;20.00;51.40;;;;;;6129920;23;20160;-83
2022/09/10 01:07:20;;;;;;;2.72;2.38;;;20.00;51.50;;;;;;6105749;23;20281;-83
2022/09/10 01:09:46;;;;;;;2.65;2.45;;;20.00;51.50;;;;;;6130150;23;20154;-83
2022/09/10 01:12:27;;;;;;;2.50;2.30;;;20.00;51.50;;;;;;6082414;23;20159;-84
2022/09/10 01:15:07;;;;;;;2.50;2.30;;;20.00;51.50;;;;;;6107644;23;20222;-83
2022/09/10 01:17:52;;;;;;;2.30;2.10;;;19.90;51.50;;;;;;6130310;23;20145;-84
2022/09/10 01:20:42;;;;;;;2.50;2.30;;;20.00;51.50;;;;;;6155804;23;20575;-84
2022/09/10 01:23:32;;;;;;;2.42;2.22;;;20.00;51.50;;;;;;6129526;23;20155;-85
2022/09/10 01:26:30;;;;;;;2.50;2.30;;;20.00;51.50;;;;;;6155858;23;20234;-83
2022/09/10 01:29:01;;;;;;;2.75;2.53;;;20.00;51.50;;;;;;6134115;23;20198;-85
2022/09/10 01:31:54;;;;;;;2.47;2.28;;;20.00;51.60;;;;;;6129826;23;20458;-82
2022/09/10 01:34:31;;;;;;;2.40;2.20;;;20.00;51.60;;;;;;6129707;23;20144;-84
2022/09/10 01:37:02;;;;;;;2.50;2.25;;;20.00;51.50;;;;;;6129855;23;20152;-84
2022/09/10 01:39:40;;;;;;;;;;;;;;;;;;;;;
2022/09/10 01:42:07;;;;;;;2.33;2.13;;;20.00;51.60;;;;;;6153623;23;20670;-83
2022/09/10 01:44:57;;;;;;;;;;;;;;;;;;;;;
2022/09/10 01:47:43;;;;;;;2.70;2.50;;;20.00;51.60;;;;;;6152481;23;20243;-83
2022/09/10 01:50:21;;;;;;;2.28;2.08;;;20.00;51.60;;;;;;6132280;23;20524;-83
2022/09/10 01:53:21;;;;;;;2.53;2.33;;;20.00;51.60;;;;;;6155545;23;20135;-84
2022/09/10 01:56:04;;;;;;;2.30;2.10;;;20.00;51.60;;;;;;6178921;23;20217;-83
2022/09/10 01:58:40;;;;;;;2.38;2.17;;;19.90;51.50;;;;;;6132365;23;20143;-83
2022/09/10 02:01:12;;;;;;;2.50;2.30;;;20.00;51.70;;;;;;6061152;23;20214;-84
2022/09/10 02:03:38;;;;;;;2.35;2.15;;;20.00;51.60;;;;;;6130275;23;20132;-83
2022/09/10 02:06:06;;;;;;;2.55;2.35;;;19.90;51.60;;;;;;6081545;23;20584;-83
2022/09/10 02:08:32;;;;;;;3.13;2.20;;;20.00;51.60;;;;;;6105515;23;20631;-83
2022/09/10 02:10:59;;;;;;;2.50;2.30;;;19.90;51.60;;;;;;6082321;23;20156;-83
2022/09/10 02:13:26;;;;;;;2.45;2.25;;;19.90;51.60;;;;;;6081674;23;20187;-83
2022/09/10 02:15:55;;;;;;;2.40;2.20;;;19.90;51.60;;;;;;6106866;23;20151;-83
2022/09/10 02:18:22;;;;;;;2.03;1.90;;;19.90;51.60;;;;;;6059075;23;20194;-84
2022/09/10 02:20:50;;;;;;;2.40;2.05;;;19.90;51.60;;;;;;6034557;23;20163;-84
2022/09/10 02:23:19;;;;;;;2.55;2.35;;;19.90;51.70;;;;;;6058579;23;20155;-85
2022/09/10 02:25:44;;;;;;;1.98;1.80;;;19.90;51.70;;;;;;6058587;23;20234;-84
2022/09/10 02:28:10;;;;;;;2.53;2.10;;;19.90;51.70;;;;;;6131360;23;20498;-84
2022/09/10 02:30:36;;;;;;;2.28;2.08;;;19.90;52.30;;;;;;6107135;23;20147;-84
2022/09/10 02:33:02;;;;;;;2.42;2.20;;;19.90;51.70;;;;;;6131079;23;20171;-84
2022/09/10 02:35:28;;;;;;;2.58;2.38;;;19.90;51.70;;;;;;6118235;23;20195;-83
2022/09/10 02:37:55;;;;;;;2.20;2.00;;;19.90;51.70;;;;;;6077967;23;20160;-83
2022/09/10 02:40:21;;;;;;;2.55;2.35;;;19.90;51.70;;;;;;6102809;23;20213;-84
2022/09/10 02:42:46;;;;;;;2.50;2.30;;;19.90;51.70;;;;;;6053786;23;20188;-82
2022/09/10 02:45:13;;;;;;;2.30;2.10;;;19.90;51.70;;;;;;6077737;23;20488;-84
2022/09/10 02:47:39;;;;;;;2.20;2.00;;;19.90;51.70;;;;;;6054522;23;20148;-83
2022/09/10 02:50:07;;;;;;;2.13;1.92;;;19.90;51.70;;;;;;6077840;23;20159;-83
2022/09/10 02:52:33;;;;;;;2.10;1.90;;;19.90;51.70;;;;;;6077746;23;20172;-83
2022/09/10 02:54:59;;;;;;;2.33;2.10;;;19.90;51.70;;;;;;6101896;23;20492;-83
2022/09/10 02:57:25;;;;;;;2.45;2.20;;;19.90;51.80;;;;;;6101581;23;20199;-84
2022/09/10 02:59:52;;;;;;;2.28;2.08;;;19.90;51.70;;;;;;6078071;23;20226;-84
2022/09/10 03:02:19;;;;;;;2.60;2.40;;;19.90;51.70;;;;;;6102303;23;20164;-83
2022/09/10 03:04:45;;;;;;;2.58;2.15;;;19.90;51.70;;;;;;6077943;23;20135;-84
2022/09/10 03:07:11;;;;;;;2.45;2.15;;;19.90;51.70;;;;;;6054462;23;20577;-83
2022/09/10 03:09:39;;;;;;;2.22;2.03;;;19.90;51.70;;;;;;6077723;23;20506;-84
2022/09/10 03:12:06;;;;;;;2.60;2.40;;;19.90;51.80;;;;;;6102213;23;20565;-83
2022/09/10 03:14:34;;;;;;;2.50;2.30;;;19.80;51.70;;;;;;6101573;23;20592;-83
2022/09/10 03:17:02;;;;;;;2.88;2.20;;;19.90;51.70;;;;;;6029225;23;20163;-84
2022/09/10 03:19:30;;;;;;;2.70;1.95;;;19.90;51.70;;;;;;6029600;23;20159;-83
2022/09/10 03:21:57;;;;;;;2.20;2.00;;;19.80;51.70;;;;;;6028801;23;20192;-84
2022/09/10 03:24:25;;;;;;;2.20;2.00;;;19.90;51.70;;;;;;6005494;23;20155;-85
2022/09/10 03:26:52;;;;;;;2.65;2.45;;;19.80;51.70;;;;;;6006087;23;20592;-84
2022/09/10 03:29:18;;;;;;;2.45;2.25;;;19.90;51.80;;;;;;6029227;23;20172;-84
2022/09/10 03:31:45;;;;;;;2.38;2.17;;;19.90;51.80;;;;;;6077950;23;20160;-83
2022/09/10 03:34:38;;;;;;;2.40;2.20;;;19.80;51.80;;;;;;6053772;23;20170;-84
2022/09/10 03:37:12;;;;;;;2.38;2.17;;;19.90;51.80;;;;;;6086745;23;20167;-83
2022/09/10 03:39:42;;;;;;;2.15;1.95;;;19.90;51.80;;;;;;6085351;23;20151;-83
2022/09/10 03:42:08;;;;;;;2.20;2.00;;;19.80;51.80;;;;;;6130821;23;20238;-84
2022/09/10 03:44:34;;;;;;;2.22;2.03;;;19.90;51.90;;;;;;6106512;23;20166;-84
2022/09/10 03:47:00;;;;;;;2.35;2.15;;;19.90;51.80;;;;;;6082252;23;20238;-83
2022/09/10 03:49:26;;;;;;;2.30;2.10;;;19.80;51.90;;;;;;6130681;23;20163;-83
2022/09/10 03:51:53;;;;;;;2.25;2.00;;;19.80;51.80;;;;;;6130698;23;20140;-83
2022/09/10 03:54:20;;;;;;;2.20;2.00;;;19.80;51.80;;;;;;6081307;23;20194;-83
2022/09/10 03:56:47;;;;;;;2.08;1.88;;;19.80;51.80;;;;;;6105869;23;20163;-83
2022/09/10 03:59:14;;;;;;;2.30;2.10;;;19.80;51.90;;;;;;6057274;23;20543;-83
2022/09/10 04:01:41;;;;;;;2.22;2.03;;;19.80;51.80;;;;;;6081063;23;20180;-83
2022/09/10 04:04:09;;;;;;;2.30;2.00;;;19.80;51.80;;;;;;6057329;23;20156;-85
2022/09/10 04:06:36;;;;;;;2.20;2.00;;;19.80;51.80;;;;;;6081888;23;20159;-83
2022/09/10 04:09:02;;;;;;;2.20;2.00;;;19.80;51.90;;;;;;6081799;23;20653;-83
2022/09/10 04:11:28;;;;;;;2.10;1.90;;;19.80;51.90;;;;;;6106058;23;20210;-84
2022/09/10 04:13:54;;;;;;;2.22;2.03;;;19.80;51.90;;;;;;6130342;23;20146;-83
2022/09/10 04:16:22;;;;;;;2.35;2.15;;;19.80;51.90;;;;;;6106266;23;20162;-83
2022/09/10 04:18:48;;;;;;;2.25;2.00;;;19.80;51.90;;;;;;6156278;23;20139;-83
2022/09/10 04:21:14;;;;;;;2.15;1.95;;;19.80;51.90;;;;;;6106085;23;20178;-83
2022/09/10 04:23:41;;;;;;;2.50;2.22;;;19.80;51.80;;;;;;6156816;23;20263;-83
2022/09/10 04:26:16;;;;;;;2.25;2.00;;;19.80;51.80;;;;;;6130426;23;20147;-83
2022/09/10 04:28:43;;;;;;;2.20;2.00;;;19.80;51.80;;;;;;6130327;23;20251;-84
2022/09/10 04:31:09;;;;;;;2.88;2.17;;;19.80;51.90;;;;;;6130792;23;20547;-83
2022/09/10 04:33:38;;;;;;;2.10;1.90;;;19.80;51.90;;;;;;6130022;23;20147;-83
2022/09/10 04:36:05;;;;;;;2.33;1.95;;;19.80;51.90;;;;;;6129535;23;20567;-83
2022/09/10 04:38:31;;;;;;;2.28;2.00;;;19.80;51.90;;;;;;6154595;23;20490;-83
2022/09/10 04:41:00;;;;;;;2.30;2.10;;;19.80;51.90;;;;;;6154536;23;20187;-83
2022/09/10 04:43:26;;;;;;;2.28;2.05;;;19.80;51.90;;;;;;6105944;23;20165;-84
2022/09/10 04:45:54;;;;;;;2.22;1.92;;;19.80;51.90;;;;;;6154754;23;20166;-84
2022/09/10 04:48:21;;;;;;;1.90;1.80;;;19.80;51.90;;;;;;6130050;23;20155;-84
2022/09/10 04:50:47;;;;;;;2.22;2.03;;;19.80;51.90;;;;;;6105589;23;20203;-84
2022/09/10 04:53:13;;;;;;;2.10;1.90;;;19.80;51.90;;;;;;6155888;23;20132;-84
2022/09/10 04:55:39;;;;;;;2.05;1.88;;;19.80;51.90;;;;;;6082224;23;20159;-84
2022/09/10 04:58:05;;;;;;;1.90;1.80;;;19.80;51.90;;;;;;6156311;23;20136;-84
2022/09/10 05:00:31;;;;;;;2.08;1.90;;;19.80;51.90;;;;;;6129924;23;20215;-83
2022/09/10 05:02:56;;;;;;;1.90;1.80;;;19.80;52.00;;;;;;6155867;23;20163;-83
2022/09/10 05:05:22;;;;;;;1.83;1.73;;;19.80;52.00;;;;;;6105614;23;20140;-82
2022/09/10 05:07:48;;;;;;;2.30;2.10;;;19.80;52.00;;;;;;6129707;23;20128;-83
2022/09/10 05:10:14;;;;;;;2.10;1.90;;;19.80;52.00;;;;;;6105452;23;20143;-85
2022/09/10 05:12:40;;;;;;;2.20;2.00;;;19.80;52.00;;;;;;6129892;23;20140;-83
2022/09/10 05:15:06;;;;;;;2.20;2.00;;;19.80;52.00;;;;;;6130071;23;20582;-85
2022/09/10 05:17:33;;;;;;;2.38;1.98;;;19.80;52.10;;;;;;6105419;23;20195;-85
2022/09/10 05:19:59;;;;;;;2.20;2.00;;;19.80;51.90;;;;;;6155837;23;20231;-85
2022/09/10 05:22:24;;;;;;;2.53;2.00;;;19.80;52.00;;;;;;6081658;23;20266;-87
2022/09/10 05:24:50;;;;;;;1.90;1.80;;;19.80;51.90;;;;;;6154372;23;20183;-85
2022/09/10 05:27:16;;;;;;;2.30;2.10;;;19.90;52.10;;;;;;6130161;23;20634;-83
2022/09/10 05:29:57;;;;;;;;;;;;;;;;;;;;;
2022/09/10 05:32:27;;;;;;;2.00;1.85;;;19.80;52.10;;;;;;6102415;23;20547;-83
2022/09/10 05:35:04;;;;;;;2.08;1.88;;;19.70;52.00;;;;;;6130256;23;20187;-85
2022/09/10 05:37:30;;;;;;;2.00;1.77;;;19.80;52.00;;;;;;6155467;23;20154;-83
2022/09/10 05:39:56;;;;;;;2.20;1.80;;;19.80;52.10;;;;;;6105445;23;20259;-84
2022/09/10 05:42:22;;;;;;;2.10;1.90;;;19.80;52.10;;;;;;6081140;23;20217;-84
2022/09/10 05:44:49;;;;;;;2.17;1.90;;;19.80;52.10;;;;;;6105179;23;20148;-85
2022/09/10 05:47:15;;;;;;;1.92;1.83;;;19.80;52.10;;;;;;6130039;23;20179;-83
2022/09/10 05:49:41;;;;;;;1.80;1.70;;;19.80;52.10;;;;;;6156074;23;20143;-82
2022/09/10 05:52:07;;;;;;;2.13;1.92;;;19.80;52.20;;;;;;6107161;23;20179;-83
2022/09/10 05:54:34;;;;;;;2.15;1.95;;;19.80;52.10;;;;;;6131564;23;20156;-83
2022/09/10 05:57:00;;;;;;;2.20;2.00;;;19.80;52.20;;;;;;6131469;23;20156;-84
2022/09/10 05:59:26;;;;;;;2.15;1.95;;;19.80;52.20;;;;;;6181017;23;20269;-84
2022/09/10 06:01:52;;;;;;;2.22;2.03;;;19.80;52.20;;;;;;6131820;23;20173;-83
2022/09/10 06:04:18;;;;;;;2.40;2.20;;;19.80;52.20;;;;;;6131742;23;20203;-82
2022/09/10 06:06:44;;;;;;;2.05;1.85;;;19.80;52.20;;;;;;6131468;23;20128;-83
2022/09/10 06:09:10;;;;;;;2.10;1.80;;;19.80;52.20;;;;;;6083031;23;20622;-84
2022/09/10 06:11:38;;;;;;;2.38;2.00;;;19.70;52.00;;;;;;6158480;23;20156;-83
2022/09/10 06:14:04;;;;;;;2.10;1.90;;;19.80;52.30;;;;;;6131895;23;20216;-83
2022/09/10 06:16:30;;;;;;;2.05;1.90;;;19.80;52.20;;;;;;6158014;23;20591;-84
2022/09/10 06:18:58;;;;;;;2.10;1.90;;;19.80;52.20;;;;;;6106989;23;20601;-83
2022/09/10 06:21:23;;;;;;;2.22;2.03;;;19.80;52.10;;;;;;6131750;23;20167;-83
2022/09/10 06:23:52;;;;;;;1.85;1.75;;;19.70;52.10;;;;;;6107038;23;20258;-83
2022/09/10 06:26:20;;;;;;;2.25;2.05;;;19.80;52.10;;;;;;6131282;23;20187;-85
2022/09/10 06:28:48;;;;;;;1.65;1.55;;;19.80;52.20;;;;;;6058265;23;20159;-83
2022/09/10 06:31:18;;;;;;;2.60;1.83;;;19.70;52.20;;;;;;6106840;23;20163;-83
2022/09/10 06:33:46;;;;;;;2.10;1.90;;;19.80;52.20;;;;;;6060413;23;20250;-82
2022/09/10 06:36:13;;;;;;;2.13;1.90;;;19.80;52.20;;;;;;6070362;23;20261;-84
2022/09/10 06:38:39;;;;;;;2.33;2.13;;;19.80;52.20;;;;;;6057978;23;20191;-84
2022/09/10 06:41:06;;;;;;;2.40;1.77;;;19.70;52.20;;;;;;6106943;23;20603;-84
2022/09/10 06:43:35;;;;;;;1.85;1.75;;;19.80;52.30;;;;;;6082867;23;20269;-83
2022/09/10 06:46:01;;;;;;;2.40;2.20;;;19.80;52.30;;;;;;6107204;23;20182;-84
2022/09/10 06:48:27;;;;;;;2.08;1.88;;;19.80;52.30;;;;;;6082785;23;20144;-84
2022/09/10 06:50:55;;;;;;;2.30;2.10;;;19.70;52.30;;;;;;6131284;23;20135;-85
2022/09/10 06:53:22;;;;;;;2.22;2.00;;;19.80;52.30;;;;;;6131214;23;20132;-85
2022/09/10 06:55:50;;;;;;;1.80;1.70;;;19.80;52.30;;;;;;6082439;23;20155;-84
2022/09/10 06:58:18;;;;;;;2.05;1.85;;;19.80;52.30;;;;;;6156993;23;20131;-82
2022/09/10 07:00:46;;;;;;;1.98;1.80;;;19.70;52.30;;;;;;6156999;23;20136;-84
2022/09/10 07:03:14;;;;;;;2.10;1.80;;;19.70;52.30;;;;;;6157220;23;20199;-84
2022/09/10 07:05:41;;;;;;;2.03;1.70;;;19.70;52.30;;;;;;6156104;23;20147;-84
2022/09/10 07:08:06;;;;;;;2.08;1.88;;;19.70;52.30;;;;;;6106793;23;20503;-83
2022/09/10 07:10:32;;;;;;;2.05;1.85;;;19.70;52.30;;;;;;6156006;23;20610;-85
2022/09/10 07:13:00;;;;;;;2.17;1.98;;;19.70;52.30;;;;;;6155366;23;20151;-83
2022/09/10 07:15:27;;;;;;;2.20;1.70;;;19.70;52.30;;;;;;6106893;23;20144;-84
2022/09/10 07:17:53;;;;;;;1.60;1.50;;;19.70;52.50;;;;;;6156064;23;20222;-82
2022/09/10 07:20:19;;;;;;;2.08;1.88;;;19.80;52.90;;;;;;6106678;23;20599;-82
2022/09/10 07:22:45;;;;;;;1.60;1.50;;;19.80;53.00;;;;;;6130673;23;20183;-82
2022/09/10 07:25:13;;;;;;;1.60;1.50;;;19.80;53.30;;;;;;6131216;23;20211;-84
2022/09/10 07:27:38;;;;;;;1.40;1.30;;;19.80;53.50;;;;;;6156605;23;20123;-83
2022/09/10 07:30:07;;;;;;;1.50;1.40;;;19.80;53.70;;;;;;6106133;23;20159;-84
2022/09/10 07:32:35;;;;;;;1.70;1.60;;;19.80;53.90;;;;;;6156694;23;20150;-83
2022/09/10 07:35:03;;;;;;;1.42;1.33;;;19.70;53.80;;;;;;6057650;23;20159;-83
2022/09/10 07:37:31;;;;;;;1.50;1.40;;;19.80;53.90;;;;;;6106023;23;20282;-84
2022/09/10 07:39:59;;;;;;;1.65;1.55;;;19.70;54.00;;;;;;6057836;23;20234;-83
2022/09/10 07:42:28;;;;;;;1.67;1.40;;;19.80;54.00;;;;;;6105454;23;20191;-83
2022/09/10 07:44:55;;;;;;;1.50;1.40;;;19.80;54.10;;;;;;6082489;23;20159;-82
2022/09/10 07:47:22;;;;;;;1.30;1.20;;;19.80;54.10;;;;;;6105407;23;20156;-84
2022/09/10 07:49:51;;;;;;;1.50;1.40;;;19.90;54.20;;;;;;6130863;23;20135;-84
2022/09/10 07:52:18;;;;;;;1.30;1.20;;;19.80;54.20;;;;;;6058631;23;20592;-84
2022/09/10 07:54:44;;;;;;;1.55;1.40;;;19.90;54.40;;;;;;6057016;23;20173;-85
2022/09/10 07:57:11;;;;;;;1.55;1.30;;;19.80;54.40;;;;;;6081887;23;20233;-84
2022/09/10 07:59:38;;;;;;;1.20;1.10;;;19.80;54.40;;;;;;6080587;23;20159;-84
2022/09/10 08:02:08;;;;;;;1.15;1.13;;;19.90;54.50;;;;;;6102749;23;20194;-85
2022/09/10 08:04:36;;;;;;;1.30;1.20;;;19.90;54.60;;;;;;6057444;23;20234;-84
2022/09/10 08:07:02;;;;;;;1.13;1.08;;;19.90;54.50;;;;;;6130393;23;20218;-84
2022/09/10 08:09:27;;;;;;;1.50;1.40;;;19.90;54.60;;;;;;6129986;23;20174;-85
2022/09/10 08:11:53;;;;;;;1.40;1.30;;;19.90;54.60;;;;;;6105321;23;20155;-84
2022/09/10 08:14:19;;;;;;;1.40;1.30;;;19.90;54.60;;;;;;6081566;23;20143;-83
2022/09/10 08:16:45;;;;;;;1.55;1.45;;;19.90;54.60;;;;;;6130839;23;20142;-83
2022/09/10 08:19:12;;;;;;;1.40;1.30;;;19.80;54.70;;;;;;6082685;23;20194;-84
2022/09/10 08:21:39;;;;;;;1.40;1.30;;;19.90;54.90;;;;;;6131789;23;20166;-84
2022/09/10 08:24:05;;;;;;;1.42;1.25;;;19.90;54.90;;;;;;6082500;23;20175;-82
2022/09/10 08:26:32;;;;;;;1.23;1.13;;;19.80;55.00;;;;;;6105752;23;20590;-84
2022/09/10 08:28:58;;;;;;;2.30;1.40;;;19.90;55.00;;;;;;6106340;23;20172;-83
2022/09/10 08:31:25;;;;;;;1.52;1.42;;;19.90;55.10;;;;;;6130923;23;20440;-84
2022/09/10 08:33:52;;;;;;;1.50;1.40;;;19.90;55.10;;;;;;6082114;23;20621;-83
2022/09/10 08:36:20;;;;;;;1.50;1.40;;;19.80;55.20;;;;;;6119400;23;20314;-83
2022/09/10 08:38:47;;;;;;;1.52;1.42;;;19.90;55.40;;;;;;6101808;23;20152;-85
2022/09/10 08:41:37;;;;;;;2.53;1.27;;;19.90;55.40;;;;;;6077032;23;20187;-83
2022/09/10 08:44:10;;;;;;;1.60;1.50;;;19.90;55.40;;;;;;6128267;23;20627;-85
2022/09/10 08:46:43;;;;;;;1.80;1.38;;;19.90;55.60;;;;;;6128080;23;20583;-84
2022/09/10 08:49:28;;;;;;;1.50;1.40;;;19.90;55.60;;;;;;6077653;23;20152;-83
2022/09/10 08:52:10;;;;;;;1.27;1.17;;;19.90;55.70;;;;;;6101972;23;20155;-83
2022/09/10 08:54:39;;;;;;;1.40;1.30;;;19.90;55.90;;;;;;6127603;23;20136;-84
2022/09/10 08:57:06;;;;;;;1.58;1.48;;;19.90;56.00;;;;;;6077661;23;20154;-84
2022/09/10 08:59:36;;;;;;;1.67;1.50;;;19.90;55.90;;;;;;6126092;23;20136;-84
2022/09/10 09:02:29;;;;;;;1.52;1.40;;;19.90;56.00;;;;;;6077031;23;20188;-84
2022/09/10 09:04:58;;;;;;;1.63;1.20;;;19.90;56.00;;;;;;6060773;23;20159;-83
2022/09/10 09:07:24;;;;;;;1.80;1.40;;;19.90;56.00;;;;;;6076900;23;20708;-84
2022/09/10 09:09:50;;;;;;;2.83;1.52;;;19.90;56.00;;;;;;6126509;23;20163;-85
2022/09/10 09:12:27;;;;;;;1.73;1.40;;;19.90;56.00;;;;;;6077478;23;20137;-85
2022/09/10 09:15:16;;;;;;;1.67;1.38;;;19.90;56.00;;;;;;6077729;23;20150;-83
2022/09/10 09:18:11;;;;;;;1.48;1.25;;;19.90;56.00;;;;;;6101171;23;20152;-83
2022/09/10 09:20:47;;;;;;;1.90;1.50;;;19.90;56.00;;;;;;6126384;23;20146;-83
2022/09/10 09:23:54;;;;;;;3.63;1.60;;;19.90;56.00;;;;;;6077551;23;20170;-83
2022/09/10 09:26:20;;;;;;;1.95;1.58;;;19.90;56.00;;;;;;6101032;23;20155;-83
2022/09/10 09:29:00;;;;;;;1.40;1.30;;;19.90;56.10;;;;;;6053531;23;20156;-84
2022/09/10 09:31:29;;;;;;;4.65;1.50;;;19.90;56.10;;;;;;6078223;23;20286;-83
2022/09/10 09:33:59;;;;;;;1.98;1.58;;;19.90;56.10;;;;;;6054200;23;20590;-85
2022/09/10 09:36:30;;;;;;;2.08;1.50;;;19.90;56.10;;;;;;6089235;23;20199;-84
2022/09/10 09:38:56;;;;;;;1.42;1.27;;;19.90;56.10;;;;;;6105860;23;20219;-83
2022/09/10 09:41:29;;;;;;;2.75;1.40;;;19.90;56.10;;;;;;6081729;23;20538;-83
2022/09/10 09:44:16;;;;;;;3.65;1.52;;;19.90;56.10;;;;;;6106193;23;20166;-84
2022/09/10 09:46:42;;;;;;;5.95;1.60;;;19.90;56.10;;;;;;6084559;23;20714;-85
2022/09/10 09:49:14;;;;;;;1.90;1.20;;;19.90;56.10;;;;;;6129971;23;20178;-84
2022/09/10 09:51:41;;;;;;;4.75;1.50;;;20.00;56.10;;;;;;6130354;23;20136;-83
2022/09/10 09:54:10;;;;;;;2.42;1.38;;;19.90;56.10;;;;;;6105395;23;20148;-83
2022/09/10 09:56:41;;;;;;;3.45;1.60;;;19.90;56.10;;;;;;6130042;23;20170;-83
2022/09/10 09:59:11;;;;;;;2.67;1.50;;;19.90;56.10;;;;;;6129639;23;20140;-85
2022/09/10 10:01:38;;;;;;;2.67;1.60;;;19.90;56.10;;;;;;6106496;23;20171;-83
2022/09/10 10:04:13;;;;;;;3.92;1.20;;;19.90;56.20;;;;;;6105708;23;20163;-85
2022/09/10 10:06:45;;;;;;;2.05;1.48;;;19.90;56.20;;;;;;6129714;23;20136;-83
2022/09/10 10:09:19;;;;;;;2.72;1.38;;;19.90;56.20;;;;;;6129988;23;20556;-83
2022/09/10 10:12:03;;;;;;;4.95;1.50;;;19.90;56.20;;;;;;6106013;23;20136;-82
2022/09/10 10:14:35;;;;;;;3.58;1.20;;;19.90;56.20;;;;;;6108762;23;20148;-84
2022/09/10 10:17:01;;;;;;;2.25;1.27;;;19.90;56.10;;;;;;6109191;23;20139;-84
2022/09/10 10:19:33;;;;;;;3.30;1.48;;;19.90;56.10;;;;;;6180475;23;20151;-84
2022/09/10 10:22:19;;;;;;;1.52;1.42;;;20.00;56.20;;;;;;6081850;23;20195;-82
2022/09/10 10:24:47;;;;;;;1.70;1.30;;;20.00;56.10;;;;;;6106659;23;20172;-83
2022/09/10 10:27:25;;;;;;;2.00;1.65;;;20.00;56.20;;;;;;6130401;23;20138;-84
2022/09/10 10:30:02;;;;;;;3.63;1.77;;;20.00;56.10;;;;;;6129996;23;20131;-84
2022/09/10 10:32:40;;;;;;;3.80;1.30;;;20.00;56.10;;;;;;6082427;23;20156;-82
2022/09/10 10:35:31;;;;;;;1.85;1.58;;;20.00;56.10;;;;;;6131027;23;20135;-83
2022/09/10 10:38:29;;;;;;;1.88;1.30;;;20.00;56.10;;;;;;6067190;23;20209;-82
2022/09/10 10:41:19;;;;;;;1.70;1.40;;;20.00;56.00;;;;;;6047764;23;20609;-84
2022/09/10 10:44:25;;;;;;;2.00;1.40;;;20.00;56.00;;;;;;6043844;23;20146;-82
2022/09/10 10:47:16;;;;;;;2.38;1.50;;;20.00;56.00;;;;;;6067700;23;20648;-85
2022/09/10 10:50:07;;;;;;;1.50;1.40;;;20.00;56.00;;;;;;6067414;23;20567;-82
2022/09/10 10:52:59;;;;;;;1.77;1.60;;;20.00;56.00;;;;;;6042095;23;20188;-82
2022/09/10 10:55:32;;;;;;;1.50;1.40;;;20.00;56.00;;;;;;6067860;23;20142;-83
2022/09/10 10:58:15;;;;;;;2.92;1.42;;;20.00;55.80;;;;;;6067042;23;20197;-82
2022/09/10 11:00:44;;;;;;;2.05;1.50;;;20.00;55.90;;;;;;6068164;23;20149;-83
2022/09/10 11:03:17;;;;;;;1.27;1.17;;;20.00;55.80;;;;;;6120501;23;20187;-83
2022/09/10 11:05:46;;;;;;;4.63;1.88;;;20.00;55.70;;;;;;6132386;23;20422;-84
2022/09/10 11:08:30;;;;;;;1.98;1.77;;;20.00;55.80;;;;;;6108185;23;20132;-84
2022/09/10 11:10:59;;;;;;;3.42;1.60;;;20.00;55.70;;;;;;6181152;23;20474;-82
2022/09/10 11:13:45;;;;;;;4.50;1.58;;;20.00;55.80;;;;;;6133102;23;20152;-85
2022/09/10 11:16:20;;;;;;;3.47;1.42;;;20.00;55.80;;;;;;6107647;23;20210;-84
2022/09/10 11:19:12;;;;;;;4.47;1.50;;;20.00;55.70;;;;;;6107684;23;20593;-84
2022/09/10 11:21:48;;;;;;;1.95;1.50;;;20.00;55.70;;;;;;6113839;23;20199;-83
2022/09/10 11:24:33;;;;;;;3.40;1.35;;;20.00;55.60;;;;;;6180637;23;20155;-86
2022/09/10 11:27:05;;;;;;;2.13;1.27;;;19.90;55.40;;;;;;6083169;23;20152;-85
2022/09/10 11:29:51;;;;;;;1.50;1.27;;;19.90;55.30;;;;;;6131075;23;20134;-85
2022/09/10 11:32:27;;;;;;;2.13;1.35;;;20.00;55.30;;;;;;6109510;23;20147;-83
2022/09/10 11:35:15;;;;;;;1.58;1.40;;;20.00;55.30;;;;;;6086466;23;20468;-83
2022/09/10 11:37:57;;;;;;;2.80;1.67;;;19.90;55.20;;;;;;6160664;23;20242;-84
2022/09/10 11:40:38;;;;;;;3.38;1.67;;;20.00;55.20;;;;;;6039052;23;20245;-83
2022/09/10 11:43:11;;;;;;;2.92;1.25;;;20.00;55.10;;;;;;6087344;23;20187;-83
2022/09/10 11:45:47;;;;;;;1.58;1.48;;;20.00;55.10;;;;;;6109710;23;20179;-83
2022/09/10 11:48:32;;;;;;;1.60;1.50;;;20.00;55.10;;;;;;6107226;23;20589;-83
2022/09/10 11:51:05;;;;;;;2.33;1.70;;;20.00;55.10;;;;;;6133671;23;20143;-83
2022/09/10 11:53:32;;;;;;;1.50;1.40;;;20.00;55.10;;;;;;6058309;23;20154;-85
2022/09/10 11:56:21;;;;;;;2.00;1.67;;;20.00;55.00;;;;;;6130459;23;20211;-83
2022/09/10 11:59:03;;;;;;;1.60;1.50;;;20.00;54.90;;;;;;6131129;23;20136;-81
2022/09/10 12:02:01;;;;;;;2.03;1.70;;;19.90;54.70;;;;;;6083359;23;20187;-83
2022/09/10 12:04:51;;;;;;;2.00;1.55;;;20.00;54.70;;;;;;6109427;23;20207;-84
2022/09/10 12:07:30;;;;;;;1.70;1.60;;;20.00;54.70;;;;;;6130458;23;20222;-83
2022/09/10 12:10:14;;;;;;;2.58;1.67;;;20.00;54.70;;;;;;6084760;23;20241;-84
2022/09/10 12:12:43;;;;;;;1.80;1.65;;;20.00;54.60;;;;;;6064298;23;20572;-85
2022/09/10 12:15:16;;;;;;;1.75;1.55;;;20.00;54.60;;;;;;6082162;23;20603;-84
2022/09/10 12:17:42;;;;;;;3.17;1.75;;;20.00;54.60;;;;;;6179574;23;20169;-84
2022/09/10 12:20:13;;;;;;;2.83;1.65;;;20.00;54.60;;;;;;6105941;23;20167;-84
2022/09/10 12:22:40;;;;;;;1.73;1.63;;;20.00;54.50;;;;;;6179602;23;20222;-83
2022/09/10 12:25:21;;;;;;;2.63;1.60;;;20.00;54.40;;;;;;6080660;23;20155;-84
2022/09/10 12:27:51;;;;;;;1.98;1.67;;;20.00;54.30;;;;;;6154729;23;20159;-83
2022/09/10 12:30:38;;;;;;;2.10;1.67;;;20.00;54.10;;;;;;6058222;23;20158;-83
2022/09/10 12:33:33;;;;;;;1.60;1.50;;;20.00;53.90;;;;;;6110736;23;20159;-84
2022/09/10 12:35:58;;;;;;;1.60;1.50;;;20.00;53.90;;;;;;6105036;23;20210;-83
2022/09/10 12:38:54;;;;;;;1.80;1.70;;;20.00;53.70;;;;;;6076677;23;20160;-84
2022/09/10 12:41:58;;;;;;;1.70;1.60;;;20.00;53.60;;;;;;6105724;23;20176;-83
2022/09/10 12:44:43;;;;;;;1.95;1.73;;;20.00;53.50;;;;;;6109145;23;20140;-85
2022/09/10 12:47:29;;;;;;;2.00;1.80;;;20.00;53.40;;;;;;6100917;23;20140;-83
2022/09/10 12:49:58;;;;;;;1.98;1.75;;;20.00;53.50;;;;;;6100531;23;20159;-83
2022/09/10 12:52:55;;;;;;;3.47;1.98;;;20.00;53.50;;;;;;6126634;23;20171;-83
2022/09/10 12:55:55;;;;;;;1.63;1.52;;;20.00;53.50;;;;;;6106124;23;20140;-84
2022/09/10 12:58:55;;;;;;;1.92;1.55;;;20.00;53.30;;;;;;6126085;23;20476;-83
2022/09/10 13:01:41;;;;;;;1.70;1.60;;;20.00;53.40;;;;;;6080988;23;20182;-85
2022/09/10 13:04:27;;;;;;;2.22;1.55;;;20.00;53.40;;;;;;6100657;23;20146;-83
2022/09/10 13:06:56;;;;;;;1.65;1.55;;;20.00;53.40;;;;;;6077550;23;20355;-84
2022/09/10 13:09:34;;;;;;;;;;;;;;;;;;;;;
2022/09/10 13:12:19;;;;;;;1.95;1.75;;;20.00;53.20;;;;;;6062601;23;20659;-85
2022/09/10 13:15:00;;;;;;;;;;;;;;;;;;;;;
2022/09/10 13:17:36;;;;;;;1.70;1.60;;;20.00;53.20;;;;;;6098166;23;20243;-83